sensor_id;sensor_type;location;lat;lon;timestamp;pressure;altitude;pressure_sealevel;temperature;humidity
19736;BME280;32064;49.310;8.646;2022-09-13T00:00:48;100063.56;;;19.29;68.28
19736;BME280;32064;49.310;8.646;2022-09-13T00:03:14;100056.56;;;19.28;68.28
19736;BME280;32064;49.310;8.646;2022-09-13T00:05:39;100052.41;;;19.25;68.09
19736;BME280;32064;49.310;8.646;2022-09-13T00:08:06;100051.75;;;19.23;67.39
19736;BME280;32064;49.310;8.646;2022-09-13T00:10:36;100051.91;;;19.22;67.89
19736;BME280;32064;49.310;8.646;2022-09-13T00:13:03;100047.78;;;19.19;68.46
19736;BME280;32064;49.310;8.646;2022-09-13T00:15:29;100047.09;;;19.17;68.68
19736;BME280;32064;49.310;8.646;2022-09-13T00:17:55;100032.63;;;19.12;68.49
19736;BME280;32064;49.310;8.646;2022-09-13T00:20:20;100016.97;;;19.09;68.91
19736;BME280;32064;49.310;8.646;2022-09-13T00:22:46;100012.63;;;18.99;68.74
19736;BME280;32064;49.310;8.646;2022-09-13T00:25:11;100012.84;;;18.98;69.63
19736;BME280;32064;49.310;8.646;2022-09-13T00:27:37;100006.47;;;18.99;69.30
19736;BME280;32064;49.310;8.646;2022-09-13T00:30:04;100011.81;;;18.99;69.72
19736;BME280;32064;49.310;8.646;2022-09-13T00:32:30;100015.31;;;18.99;68.27
19736;BME280;32064;49.310;8.646;2022-09-13T00:34:56;100019.00;;;18.98;69.47
19736;BME280;32064;49.310;8.646;2022-09-13T00:37:22;100024.50;;;18.97;68.80
19736;BME280;32064;49.310;8.646;2022-09-13T00:39:47;100016.31;;;18.98;69.54
19736;BME280;32064;49.310;8.646;2022-09-13T00:42:13;100015.50;;;18.98;68.99
19736;BME280;32064;49.310;8.646;2022-09-13T00:45:00;100006.84;;;18.88;69.41
19736;BME280;32064;49.310;8.646;2022-09-13T00:50:23;100019.69;;;18.84;69.09
19736;BME280;32064;49.310;8.646;2022-09-13T00:53:20;100021.06;;;18.80;69.47
19736;BME280;32064;49.310;8.646;2022-09-13T00:55:53;100022.38;;;18.84;69.48
19736;BME280;32064;49.310;8.646;2022-09-13T00:58:33;100034.38;;;18.80;69.21
19736;BME280;32064;49.310;8.646;2022-09-13T01:01:02;100035.56;;;18.77;69.86
19736;BME280;32064;49.310;8.646;2022-09-13T01:03:29;100034.06;;;18.75;69.92
19736;BME280;32064;49.310;8.646;2022-09-13T01:06:02;100028.22;;;18.71;70.26
19736;BME280;32064;49.310;8.646;2022-09-13T01:08:30;100027.34;;;18.71;69.92
19736;BME280;32064;49.310;8.646;2022-09-13T01:10:58;100024.03;;;18.69;70.09
19736;BME280;32064;49.310;8.646;2022-09-13T01:13:27;100018.19;;;18.65;69.37
19736;BME280;32064;49.310;8.646;2022-09-13T01:15:56;100017.03;;;18.68;69.52
19736;BME280;32064;49.310;8.646;2022-09-13T01:18:21;100014.03;;;18.62;70.20
19736;BME280;32064;49.310;8.646;2022-09-13T01:21:19;100022.03;;;18.62;70.07
19736;BME280;32064;49.310;8.646;2022-09-13T01:44:17;100008.75;;;18.46;70.21
19736;BME280;32064;49.310;8.646;2022-09-13T01:47:02;100016.06;;;18.44;70.39
19736;BME280;32064;49.310;8.646;2022-09-13T01:52:23;100034.56;;;18.46;70.96
19736;BME280;32064;49.310;8.646;2022-09-13T01:55:04;100031.38;;;18.42;70.33
19736;BME280;32064;49.310;8.646;2022-09-13T02:00:13;100037.88;;;18.39;70.85
19736;BME280;32064;49.310;8.646;2022-09-13T02:02:54;100035.75;;;18.35;69.80
19736;BME280;32064;49.310;8.646;2022-09-13T02:05:30;100040.06;;;18.36;70.17
19736;BME280;32064;49.310;8.646;2022-09-13T02:08:00;100036.56;;;18.35;70.97
19736;BME280;32064;49.310;8.646;2022-09-13T02:10:40;100030.75;;;18.32;70.87
19736;BME280;32064;49.310;8.646;2022-09-13T02:13:11;100030.06;;;18.30;70.14
19736;BME280;32064;49.310;8.646;2022-09-13T02:15:43;100031.72;;;18.23;71.18
19736;BME280;32064;49.310;8.646;2022-09-13T02:18:17;100037.38;;;18.20;71.58
19736;BME280;32064;49.310;8.646;2022-09-13T02:20:46;100047.22;;;18.19;70.80
19736;BME280;32064;49.310;8.646;2022-09-13T02:23:25;100057.03;;;18.18;71.46
19736;BME280;32064;49.310;8.646;2022-09-13T02:25:56;100046.03;;;18.13;70.67
19736;BME280;32064;49.310;8.646;2022-09-13T02:28:27;100050.19;;;18.08;72.14
19736;BME280;32064;49.310;8.646;2022-09-13T02:30:55;100051.34;;;18.05;70.80
19736;BME280;32064;49.310;8.646;2022-09-13T02:33:32;100052.69;;;17.93;71.68
19736;BME280;32064;49.310;8.646;2022-09-13T02:36:06;100051.66;;;17.94;72.57
19736;BME280;32064;49.310;8.646;2022-09-13T02:38:53;100052.66;;;17.85;71.85
19736;BME280;32064;49.310;8.646;2022-09-13T02:41:26;100046.34;;;17.86;72.24
19736;BME280;32064;49.310;8.646;2022-09-13T02:44:04;100049.00;;;17.86;71.90
19736;BME280;32064;49.310;8.646;2022-09-13T02:52:22;100052.16;;;17.81;73.09
19736;BME280;32064;49.310;8.646;2022-09-13T02:54:58;100059.31;;;17.81;73.09
19736;BME280;32064;49.310;8.646;2022-09-13T02:57:30;100055.66;;;17.82;73.26
19736;BME280;32064;49.310;8.646;2022-09-13T02:59:58;100052.31;;;17.80;71.83
19736;BME280;32064;49.310;8.646;2022-09-13T03:02:28;100043.78;;;17.76;73.48
19736;BME280;32064;49.310;8.646;2022-09-13T03:04:57;100040.47;;;17.74;71.97
19736;BME280;32064;49.310;8.646;2022-09-13T03:07:23;100037.97;;;17.72;73.21
19736;BME280;32064;49.310;8.646;2022-09-13T03:09:52;100039.28;;;17.68;72.60
19736;BME280;32064;49.310;8.646;2022-09-13T03:20:38;100035.94;;;17.58;73.81
19736;BME280;32064;49.310;8.646;2022-09-13T03:31:06;100035.72;;;17.43;73.86
19736;BME280;32064;49.310;8.646;2022-09-13T03:33:45;100026.91;;;17.43;74.85
19736;BME280;32064;49.310;8.646;2022-09-13T03:36:46;100030.34;;;17.35;73.16
19736;BME280;32064;49.310;8.646;2022-09-13T03:39:19;100021.22;;;17.38;73.52
19736;BME280;32064;49.310;8.646;2022-09-13T03:41:51;100002.13;;;17.34;74.21
19736;BME280;32064;49.310;8.646;2022-09-13T03:44:20;99991.66;;;17.33;73.23
19736;BME280;32064;49.310;8.646;2022-09-13T03:46:49;99998.78;;;17.32;74.00
19736;BME280;32064;49.310;8.646;2022-09-13T03:49:18;100000.59;;;17.32;74.17
19736;BME280;32064;49.310;8.646;2022-09-13T03:51:47;100015.41;;;17.34;74.04
19736;BME280;32064;49.310;8.646;2022-09-13T03:54:21;100018.25;;;17.33;75.08
19736;BME280;32064;49.310;8.646;2022-09-13T03:57:08;100015.22;;;17.27;75.33
19736;BME280;32064;49.310;8.646;2022-09-13T03:59:34;100008.44;;;17.33;75.53
19736;BME280;32064;49.310;8.646;2022-09-13T04:02:04;100016.91;;;17.37;73.73
19736;BME280;32064;49.310;8.646;2022-09-13T04:04:31;100016.91;;;17.37;75.30
19736;BME280;32064;49.310;8.646;2022-09-13T04:06:57;100025.22;;;17.34;74.20
19736;BME280;32064;49.310;8.646;2022-09-13T04:09:26;100021.88;;;17.32;74.50
19736;BME280;32064;49.310;8.646;2022-09-13T04:11:51;100010.38;;;17.23;74.69
19736;BME280;32064;49.310;8.646;2022-09-13T04:14:16;100024.50;;;17.23;75.55
19736;BME280;32064;49.310;8.646;2022-09-13T04:16:42;100031.97;;;17.20;75.16
19736;BME280;32064;49.310;8.646;2022-09-13T04:19:07;100044.78;;;17.24;75.96
19736;BME280;32064;49.310;8.646;2022-09-13T04:21:33;100041.47;;;17.22;76.41
19736;BME280;32064;49.310;8.646;2022-09-13T04:23:58;100036.13;;;17.22;75.51
19736;BME280;32064;49.310;8.646;2022-09-13T04:26:23;100038.34;;;17.27;75.59
19736;BME280;32064;49.310;8.646;2022-09-13T04:28:51;100029.50;;;17.18;74.94
19736;BME280;32064;49.310;8.646;2022-09-13T04:31:17;100034.31;;;17.23;74.62
19736;BME280;32064;49.310;8.646;2022-09-13T04:33:42;100029.50;;;17.26;74.48
19736;BME280;32064;49.310;8.646;2022-09-13T04:36:07;100032.97;;;17.19;76.38
19736;BME280;32064;49.310;8.646;2022-09-13T04:38:33;100028.63;;;17.18;75.56
19736;BME280;32064;49.310;8.646;2022-09-13T04:40:58;100022.50;;;17.17;75.60
19736;BME280;32064;49.310;8.646;2022-09-13T04:43:24;100029.50;;;17.18;75.81
19736;BME280;32064;49.310;8.646;2022-09-13T04:45:50;100035.47;;;17.20;74.77
19736;BME280;32064;49.310;8.646;2022-09-13T04:48:15;100027.97;;;17.16;75.37
19736;BME280;32064;49.310;8.646;2022-09-13T04:50:41;100037.59;;;17.17;75.66
19736;BME280;32064;49.310;8.646;2022-09-13T04:53:07;100040.63;;;17.22;75.67
19736;BME280;32064;49.310;8.646;2022-09-13T04:55:32;100038.13;;;17.20;75.80
19736;BME280;32064;49.310;8.646;2022-09-13T04:57:57;100035.00;;;17.25;74.85
19736;BME280;32064;49.310;8.646;2022-09-13T05:00:23;100032.47;;;17.23;75.87
19736;BME280;32064;49.310;8.646;2022-09-13T05:02:53;100037.78;;;17.23;74.76
19736;BME280;32064;49.310;8.646;2022-09-13T05:05:19;100032.47;;;17.23;74.83
19736;BME280;32064;49.310;8.646;2022-09-13T05:07:44;100040.81;;;17.28;76.73
19736;BME280;32064;49.310;8.646;2022-09-13T05:10:10;100042.00;;;17.34;76.24
19736;BME280;32064;49.310;8.646;2022-09-13T05:12:35;100034.34;;;17.31;75.67
19736;BME280;32064;49.310;8.646;2022-09-13T05:15:00;100047.69;;;17.39;75.90
19736;BME280;32064;49.310;8.646;2022-09-13T05:17:28;100052.81;;;17.41;75.52
19736;BME280;32064;49.310;8.646;2022-09-13T05:19:54;100055.66;;;17.39;75.94
19736;BME280;32064;49.310;8.646;2022-09-13T05:22:19;100058.69;;;17.44;75.80
19736;BME280;32064;49.310;8.646;2022-09-13T05:24:44;100061.00;;;17.47;76.48
19736;BME280;32064;49.310;8.646;2022-09-13T05:27:10;100070.16;;;17.53;75.21
19736;BME280;32064;49.310;8.646;2022-09-13T05:29:35;100080.31;;;17.58;75.87
19736;BME280;32064;49.310;8.646;2022-09-13T05:32:01;100077.47;;;17.51;76.17
19736;BME280;32064;49.310;8.646;2022-09-13T05:34:26;100080.97;;;17.51;76.33
19736;BME280;32064;49.310;8.646;2022-09-13T05:36:52;100074.34;;;17.56;75.91
19736;BME280;32064;49.310;8.646;2022-09-13T05:39:17;100075.16;;;17.56;75.42
19736;BME280;32064;49.310;8.646;2022-09-13T05:41:43;100074.34;;;17.56;74.97
19736;BME280;32064;49.310;8.646;2022-09-13T05:44:09;100087.81;;;17.62;74.68
19736;BME280;32064;49.310;8.646;2022-09-13T05:46:34;100082.16;;;17.57;75.39
19736;BME280;32064;49.310;8.646;2022-09-13T05:49:00;100077.19;;;17.62;76.33
19736;BME280;32064;49.310;8.646;2022-09-13T05:51:25;100077.53;;;17.67;74.97
19736;BME280;32064;49.310;8.646;2022-09-13T05:53:53;100068.91;;;17.73;76.17
19736;BME280;32064;49.310;8.646;2022-09-13T05:56:26;100068.91;;;17.73;74.49
19736;BME280;32064;49.310;8.646;2022-09-13T05:58:53;100079.53;;;17.73;76.12
19736;BME280;32064;49.310;8.646;2022-09-13T06:01:24;100084.72;;;17.75;74.84
19736;BME280;32064;49.310;8.646;2022-09-13T06:03:54;100073.59;;;17.80;75.40
19736;BME280;32064;49.310;8.646;2022-09-13T06:06:21;100065.97;;;17.85;74.31
19736;BME280;32064;49.310;8.646;2022-09-13T06:08:51;100061.50;;;17.93;74.99
19736;BME280;32064;49.310;8.646;2022-09-13T06:11:16;100066.69;;;18.03;74.73
19736;BME280;32064;49.310;8.646;2022-09-13T06:13:42;100075.50;;;18.12;74.04
19736;BME280;32064;49.310;8.646;2022-09-13T06:16:10;100085.50;;;18.26;73.63
19736;BME280;32064;49.310;8.646;2022-09-13T06:18:36;100077.69;;;18.41;73.05
19736;BME280;32064;49.310;8.646;2022-09-13T06:21:04;100075.84;;;18.42;72.51
19736;BME280;32064;49.310;8.646;2022-09-13T06:23:30;100063.03;;;18.45;72.57
19736;BME280;32064;49.310;8.646;2022-09-13T06:26:09;100060.69;;;18.50;73.69
19736;BME280;32064;49.310;8.646;2022-09-13T06:28:36;100056.53;;;18.64;72.77
19736;BME280;32064;49.310;8.646;2022-09-13T06:31:04;100058.16;;;18.73;72.63
19736;BME280;32064;49.310;8.646;2022-09-13T06:33:31;100067.88;;;18.82;72.99
19736;BME280;32064;49.310;8.646;2022-09-13T06:36:02;100062.69;;;18.89;73.03
19736;BME280;32064;49.310;8.646;2022-09-13T06:38:28;100058.50;;;18.87;72.62
19736;BME280;32064;49.310;8.646;2022-09-13T06:41:02;100051.38;;;18.79;72.50
19736;BME280;32064;49.310;8.646;2022-09-13T06:43:28;100056.34;;;18.90;72.65
19736;BME280;32064;49.310;8.646;2022-09-13T06:46:01;100055.69;;;18.88;72.00
19736;BME280;32064;49.310;8.646;2022-09-13T06:48:32;100055.19;;;18.84;72.99
19736;BME280;32064;49.310;8.646;2022-09-13T06:50:59;100049.69;;;18.86;72.76
19736;BME280;32064;49.310;8.646;2022-09-13T06:53:24;100055.34;;;18.91;72.97
19736;BME280;32064;49.310;8.646;2022-09-13T06:56:20;100059.66;;;18.92;73.07
19736;BME280;32064;49.310;8.646;2022-09-13T06:58:47;100056.00;;;18.93;72.56
19736;BME280;32064;49.310;8.646;2022-09-13T07:01:18;100060.47;;;19.01;71.97
19736;BME280;32064;49.310;8.646;2022-09-13T07:03:46;100057.13;;;19.07;72.61
19736;BME280;32064;49.310;8.646;2022-09-13T07:06:18;100060.31;;;19.02;72.10
19736;BME280;32064;49.310;8.646;2022-09-13T07:08:45;100063.97;;;19.10;72.65
19736;BME280;32064;49.310;8.646;2022-09-13T07:11:12;100072.75;;;19.18;72.06
19736;BME280;32064;49.310;8.646;2022-09-13T07:13:38;100068.91;;;19.21;72.21
19736;BME280;32064;49.310;8.646;2022-09-13T07:16:10;100064.41;;;19.21;71.95
19736;BME280;32064;49.310;8.646;2022-09-13T07:18:36;100063.06;;;19.34;72.24
19736;BME280;32064;49.310;8.646;2022-09-13T07:21:04;100057.03;;;19.40;72.31
19736;BME280;32064;49.310;8.646;2022-09-13T07:23:32;100049.63;;;19.50;71.51
19736;BME280;32064;49.310;8.646;2022-09-13T07:25:58;100048.63;;;19.51;72.39
19736;BME280;32064;49.310;8.646;2022-09-13T07:28:36;100044.25;;;19.58;72.27
19736;BME280;32064;49.310;8.646;2022-09-13T07:31:08;100044.72;;;19.70;71.57
19736;BME280;32064;49.310;8.646;2022-09-13T07:33:34;100052.41;;;19.73;71.23
19736;BME280;32064;49.310;8.646;2022-09-13T07:36:00;100061.47;;;19.87;70.82
19736;BME280;32064;49.310;8.646;2022-09-13T07:38:31;100069.00;;;20.06;70.97
19736;BME280;32064;49.310;8.646;2022-09-13T07:40:57;100059.72;;;20.25;70.18
19736;BME280;32064;49.310;8.646;2022-09-13T07:43:27;100060.88;;;20.46;69.76
19736;BME280;32064;49.310;8.646;2022-09-13T07:45:57;100062.84;;;20.90;68.90
19736;BME280;32064;49.310;8.646;2022-09-13T07:48:25;100074.19;;;21.06;67.84
19736;BME280;32064;49.310;8.646;2022-09-13T07:51:11;100072.06;;;21.17;66.25
19736;BME280;32064;49.310;8.646;2022-09-13T07:53:38;100080.88;;;21.40;65.98
19736;BME280;32064;49.310;8.646;2022-09-13T07:58:31;100068.19;;;22.22;63.57
19736;BME280;32064;49.310;8.646;2022-09-13T08:01:05;100071.25;;;22.18;64.38
19736;BME280;32064;49.310;8.646;2022-09-13T08:03:33;100070.63;;;22.02;64.00
19736;BME280;32064;49.310;8.646;2022-09-13T08:05:58;100065.78;;;21.90;64.07
19736;BME280;32064;49.310;8.646;2022-09-13T08:08:24;100056.16;;;21.96;64.18
19736;BME280;32064;49.310;8.646;2022-09-13T08:10:50;100051.94;;;22.23;63.90
19736;BME280;32064;49.310;8.646;2022-09-13T08:13:15;100052.03;;;22.15;63.70
19736;BME280;32064;49.310;8.646;2022-09-13T08:15:41;100059.81;;;22.10;64.10
19736;BME280;32064;49.310;8.646;2022-09-13T08:18:07;100051.88;;;22.02;64.22
19736;BME280;32064;49.310;8.646;2022-09-13T08:20:36;100050.78;;;21.96;64.05
19736;BME280;32064;49.310;8.646;2022-09-13T08:23:06;100069.06;;;22.07;63.75
19736;BME280;32064;49.310;8.646;2022-09-13T08:25:35;100075.78;;;22.18;63.85
19736;BME280;32064;49.310;8.646;2022-09-13T08:28:07;100071.50;;;22.24;63.89
19736;BME280;32064;49.310;8.646;2022-09-13T08:30:34;100067.50;;;22.34;62.82
19736;BME280;32064;49.310;8.646;2022-09-13T08:33:04;100062.38;;;22.18;63.70
19736;BME280;32064;49.310;8.646;2022-09-13T08:35:31;100052.19;;;22.28;63.54
19736;BME280;32064;49.310;8.646;2022-09-13T08:37:57;100057.94;;;22.25;63.12
19736;BME280;32064;49.310;8.646;2022-09-13T08:40:24;100048.13;;;23.23;60.76
19736;BME280;32064;49.310;8.646;2022-09-13T08:45:29;100050.03;;;25.10;55.72
19736;BME280;32064;49.310;8.646;2022-09-13T08:48:03;100050.38;;;25.41;54.90
19736;BME280;32064;49.310;8.646;2022-09-13T08:50:33;100051.91;;;26.13;53.58
19736;BME280;32064;49.310;8.646;2022-09-13T08:53:23;100040.31;;;27.25;50.38
19736;BME280;32064;49.310;8.646;2022-09-13T08:56:08;100044.44;;;27.76;49.10
19736;BME280;32064;49.310;8.646;2022-09-13T09:07:18;100054.16;;;28.26;47.84
19736;BME280;32064;49.310;8.646;2022-09-13T09:14:45;100051.81;;;28.41;47.26
19736;BME280;32064;49.310;8.646;2022-09-13T09:17:23;100038.56;;;27.97;47.37
19736;BME280;32064;49.310;8.646;2022-09-13T09:22:52;100033.47;;;27.89;48.11
19736;BME280;32064;49.310;8.646;2022-09-13T09:25:22;100039.34;;;27.86;48.63
19736;BME280;32064;49.310;8.646;2022-09-13T09:27:49;100033.31;;;27.84;48.21
19736;BME280;32064;49.310;8.646;2022-09-13T09:30:14;100024.53;;;27.70;47.79
19736;BME280;32064;49.310;8.646;2022-09-13T09:32:59;100028.84;;;27.60;48.29
19736;BME280;32064;49.310;8.646;2022-09-13T09:38:37;100063.22;;;27.89;48.80
19736;BME280;32064;49.310;8.646;2022-09-13T09:41:12;100078.38;;;28.32;47.99
19736;BME280;32064;49.310;8.646;2022-09-13T09:43:50;100080.59;;;28.89;47.42
19736;BME280;32064;49.310;8.646;2022-09-13T09:46:24;100084.00;;;29.20;46.02
19736;BME280;32064;49.310;8.646;2022-09-13T09:48:54;100072.34;;;29.71;44.91
19736;BME280;32064;49.310;8.646;2022-09-13T09:51:22;100073.25;;;29.77;44.82
19736;BME280;32064;49.310;8.646;2022-09-13T09:53:56;100078.84;;;29.70;44.53
19736;BME280;32064;49.310;8.646;2022-09-13T09:56:29;100072.44;;;29.36;44.89
19736;BME280;32064;49.310;8.646;2022-09-13T09:58:55;100065.41;;;29.52;45.45
19736;BME280;32064;49.310;8.646;2022-09-13T10:01:30;100071.19;;;29.96;45.02
19736;BME280;32064;49.310;8.646;2022-09-13T10:06:26;100048.19;;;29.18;45.34
19736;BME280;32064;49.310;8.646;2022-09-13T10:09:01;100047.47;;;28.87;46.71
19736;BME280;32064;49.310;8.646;2022-09-13T10:11:45;100046.66;;;29.22;45.55
19736;BME280;32064;49.310;8.646;2022-09-13T10:14:29;100040.63;;;29.60;46.13
19736;BME280;32064;49.310;8.646;2022-09-13T10:17:20;100035.19;;;29.31;46.07
19736;BME280;32064;49.310;8.646;2022-09-13T10:19:59;100046.09;;;29.08;46.32
19736;BME280;32064;49.310;8.646;2022-09-13T10:22:27;100049.72;;;28.90;45.83
19736;BME280;32064;49.310;8.646;2022-09-13T10:24:53;100055.13;;;28.43;47.38
19736;BME280;32064;49.310;8.646;2022-09-13T10:27:23;100047.03;;;28.13;46.26
19736;BME280;32064;49.310;8.646;2022-09-13T10:29:52;100050.28;;;27.91;47.40
19736;BME280;32064;49.310;8.646;2022-09-13T10:32:21;100046.53;;;27.74;47.75
19736;BME280;32064;49.310;8.646;2022-09-13T10:34:48;100064.84;;;27.60;48.92
19736;BME280;32064;49.310;8.646;2022-09-13T10:37:17;100073.00;;;27.72;48.76
19736;BME280;32064;49.310;8.646;2022-09-13T10:39:57;100077.19;;;27.68;48.73
19736;BME280;32064;49.310;8.646;2022-09-13T10:42:25;100076.28;;;27.74;49.86
19736;BME280;32064;49.310;8.646;2022-09-13T10:44:54;100074.72;;;27.85;50.29
19736;BME280;32064;49.310;8.646;2022-09-13T10:47:24;100083.19;;;27.88;49.32
19736;BME280;32064;49.310;8.646;2022-09-13T10:49:54;100054.28;;;27.89;48.67
19736;BME280;32064;49.310;8.646;2022-09-13T10:57:43;100057.06;;;27.82;48.95
19736;BME280;32064;49.310;8.646;2022-09-13T11:00:11;100063.84;;;28.03;48.14
19736;BME280;32064;49.310;8.646;2022-09-13T11:03:11;100048.94;;;28.24;48.60
19736;BME280;32064;49.310;8.646;2022-09-13T11:11:35;100056.91;;;28.73;46.11
19736;BME280;32064;49.310;8.646;2022-09-13T11:14:17;100042.22;;;28.69;47.71
19736;BME280;32064;49.310;8.646;2022-09-13T11:17:07;100034.56;;;28.54;47.13
19736;BME280;32064;49.310;8.646;2022-09-13T11:20:03;100022.72;;;28.36;46.76
19736;BME280;32064;49.310;8.646;2022-09-13T11:30:20;100031.75;;;27.46;49.45
19736;BME280;32064;49.310;8.646;2022-09-13T11:47:00;100025.50;;;27.46;51.01
19736;BME280;32064;49.310;8.646;2022-09-13T11:49:41;100036.59;;;27.56;50.51
19736;BME280;32064;49.310;8.646;2022-09-13T11:57:56;99995.44;;;28.26;48.84
19736;BME280;32064;49.310;8.646;2022-09-13T12:00:24;100000.53;;;28.58;48.17
19736;BME280;32064;49.310;8.646;2022-09-13T12:03:55;100006.66;;;28.65;48.42
19736;BME280;32064;49.310;8.646;2022-09-13T12:06:18;100000.59;;;28.86;47.62
19736;BME280;32064;49.310;8.646;2022-09-13T12:08:51;99990.13;;;29.02;48.02
19736;BME280;32064;49.310;8.646;2022-09-13T12:11:35;99981.28;;;28.95;46.81
19736;BME280;32064;49.310;8.646;2022-09-13T12:14:04;99972.34;;;29.06;47.52
19736;BME280;32064;49.310;8.646;2022-09-13T12:16:34;99968.22;;;29.03;46.47
19736;BME280;32064;49.310;8.646;2022-09-13T12:19:19;99960.09;;;28.92;47.37
19736;BME280;32064;49.310;8.646;2022-09-13T12:21:47;99960.09;;;28.92;47.10
19736;BME280;32064;49.310;8.646;2022-09-13T12:26:47;99951.47;;;29.35;46.82
19736;BME280;32064;49.310;8.646;2022-09-13T12:29:35;99943.72;;;29.39;46.42
19736;BME280;32064;49.310;8.646;2022-09-13T12:32:06;99945.63;;;29.26;46.11
19736;BME280;32064;49.310;8.646;2022-09-13T12:37:18;99937.72;;;28.96;46.80
19736;BME280;32064;49.310;8.646;2022-09-13T12:39:59;99926.50;;;29.04;48.29
19736;BME280;32064;49.310;8.646;2022-09-13T12:48:09;99936.84;;;28.43;47.17
19736;BME280;32064;49.310;8.646;2022-09-13T12:53:47;99925.41;;;28.18;49.51
19736;BME280;32064;49.310;8.646;2022-09-13T12:56:28;99927.19;;;28.12;48.34
19736;BME280;32064;49.310;8.646;2022-09-13T13:01:29;99900.22;;;27.94;47.45
19736;BME280;32064;49.310;8.646;2022-09-13T13:07:02;99903.34;;;27.67;48.16
19736;BME280;32064;49.310;8.646;2022-09-13T13:09:46;99907.59;;;27.75;49.50
19736;BME280;32064;49.310;8.646;2022-09-13T13:14:50;99904.81;;;27.93;49.58
19736;BME280;32064;49.310;8.646;2022-09-13T13:26:48;99884.00;;;28.29;49.39
19736;BME280;32064;49.310;8.646;2022-09-13T13:28:48;99885.72;;;28.59;48.32
19736;BME280;32064;49.310;8.646;2022-09-13T13:39:08;99884.00;;;28.93;48.79
19736;BME280;32064;49.310;8.646;2022-09-13T13:41:47;99884.72;;;28.88;48.92
19736;BME280;32064;49.310;8.646;2022-09-13T13:57:37;99879.19;;;28.43;50.50
19736;BME280;32064;49.310;8.646;2022-09-13T14:00:22;99878.69;;;28.34;50.82
19736;BME280;32064;49.310;8.646;2022-09-13T14:05:36;99861.53;;;28.29;50.25
19736;BME280;32064;49.310;8.646;2022-09-13T14:11:24;99863.50;;;28.33;49.97
19736;BME280;32064;49.310;8.646;2022-09-13T14:17:12;99848.78;;;28.41;49.73
19736;BME280;32064;49.310;8.646;2022-09-13T14:19:54;99843.63;;;28.39;49.47
19736;BME280;32064;49.310;8.646;2022-09-13T14:22:24;99845.41;;;28.34;49.24
19736;BME280;32064;49.310;8.646;2022-09-13T14:29:53;99832.31;;;28.31;49.98
19736;BME280;32064;49.310;8.646;2022-09-13T14:32:22;99835.41;;;28.34;48.89
19736;BME280;32064;49.310;8.646;2022-09-13T14:37:22;99835.03;;;28.31;48.98
19736;BME280;32064;49.310;8.646;2022-09-13T14:39:59;99830.34;;;28.26;48.64
19736;BME280;32064;49.310;8.646;2022-09-13T14:42:25;99822.44;;;28.25;50.04
19736;BME280;32064;49.310;8.646;2022-09-13T14:44:51;99817.28;;;28.23;49.47
19736;BME280;32064;49.310;8.646;2022-09-13T14:47:46;99811.78;;;28.18;49.56
19736;BME280;32064;49.310;8.646;2022-09-13T14:50:17;99807.63;;;28.27;50.20
19736;BME280;32064;49.310;8.646;2022-09-13T14:52:50;99808.69;;;28.26;49.43
19736;BME280;32064;49.310;8.646;2022-09-13T14:55:21;99804.44;;;28.30;49.95
19736;BME280;32064;49.310;8.646;2022-09-13T14:57:52;99803.41;;;28.31;49.75
19736;BME280;32064;49.310;8.646;2022-09-13T15:00:21;99802.66;;;28.36;49.45
19736;BME280;32064;49.310;8.646;2022-09-13T15:02:50;99796.31;;;28.30;49.34
19736;BME280;32064;49.310;8.646;2022-09-13T15:05:19;99789.16;;;28.24;50.54
19736;BME280;32064;49.310;8.646;2022-09-13T15:07:45;99778.72;;;28.16;49.43
19736;BME280;32064;49.310;8.646;2022-09-13T15:12:36;99776.16;;;28.09;50.75
19736;BME280;32064;49.310;8.646;2022-09-13T15:23:26;99755.47;;;27.80;51.51
19736;BME280;32064;49.310;8.646;2022-09-13T15:26:20;99760.97;;;27.73;51.69
19736;BME280;32064;49.310;8.646;2022-09-13T15:34:21;99750.78;;;27.63;51.59
19736;BME280;32064;49.310;8.646;2022-09-13T15:39:27;99742.41;;;27.65;52.57
19736;BME280;32064;49.310;8.646;2022-09-13T15:41:58;99731.47;;;27.60;51.94
19736;BME280;32064;49.310;8.646;2022-09-13T15:44:27;99721.63;;;27.53;51.09
19736;BME280;32064;49.310;8.646;2022-09-13T15:47:01;99715.88;;;27.50;51.38
19736;BME280;32064;49.310;8.646;2022-09-13T15:49:30;99713.38;;;27.48;52.08
19736;BME280;32064;49.310;8.646;2022-09-13T15:51:59;99711.16;;;27.45;52.39
19736;BME280;32064;49.310;8.646;2022-09-13T15:54:34;99709.88;;;27.36;51.97
19736;BME280;32064;49.310;8.646;2022-09-13T15:57:00;99711.63;;;27.30;51.42
19736;BME280;32064;49.310;8.646;2022-09-13T15:59:25;99712.94;;;27.28;51.40
19736;BME280;32064;49.310;8.646;2022-09-13T16:01:51;99715.28;;;27.24;51.56
19736;BME280;32064;49.310;8.646;2022-09-13T16:04:17;99710.34;;;27.21;52.26
19736;BME280;32064;49.310;8.646;2022-09-13T16:06:43;99710.81;;;27.18;51.91
19736;BME280;32064;49.310;8.646;2022-09-13T16:09:23;99711.47;;;27.14;52.88
19736;BME280;32064;49.310;8.646;2022-09-13T16:11:50;99697.75;;;27.15;52.12
19736;BME280;32064;49.310;8.646;2022-09-13T16:14:16;99704.66;;;27.11;52.29
19736;BME280;32064;49.310;8.646;2022-09-13T16:16:43;99700.78;;;27.07;52.22
19736;BME280;32064;49.310;8.646;2022-09-13T16:19:14;99703.97;;;27.04;52.49
19736;BME280;32064;49.310;8.646;2022-09-13T16:21:39;99702.06;;;27.04;53.10
19736;BME280;32064;49.310;8.646;2022-09-13T16:24:05;99704.19;;;27.02;53.87
19736;BME280;32064;49.310;8.646;2022-09-13T16:26:31;99705.94;;;26.97;53.45
19736;BME280;32064;49.310;8.646;2022-09-13T16:28:57;99696.06;;;26.91;52.61
19736;BME280;32064;49.310;8.646;2022-09-13T16:31:22;99696.19;;;26.84;52.27
19736;BME280;32064;49.310;8.646;2022-09-13T16:33:47;99697.31;;;26.76;52.31
19736;BME280;32064;49.310;8.646;2022-09-13T16:36:13;99696.38;;;26.71;52.42